createdAt,value
2018-11-11T00:00:46.514Z,840.90
2018-11-11T00:03:25.229Z,785.87
2018-11-11T03:19:08.483Z,764.67
2018-11-11T03:22:05.590Z,999.90
2018-11-11T03:27:44.717Z,687.50
2018-11-11T03:30:54.092Z,750.87
2018-11-11T10:39:21.757Z,237.03
2018-11-11T10:41:56.041Z,281.67
2018-11-11T10:45:31.073Z,314.00
2018-11-11T10:48:08.724Z,281.33
2018-11-11T10:50:44.247Z,333.33
2018-11-11T10:53:11.762Z,331.57
2018-11-11T10:55:39.382Z,286.67
2018-11-11T10:58:06.885Z,224.07
2018-11-11T11:00:39.835Z,541.60
2018-11-11T11:03:13.575Z,634.53
2018-11-11T11:05:43.027Z,520.57
2018-11-11T11:08:10.588Z,442.97
2018-11-11T11:10:38.129Z,441.23
2018-11-11T11:13:05.866Z,461.27
2018-11-11T11:15:33.458Z,463.53
2018-11-11T11:18:02.346Z,477.43
2018-11-11T11:20:29.838Z,685.30
2018-11-11T11:22:57.402Z,623.87
2018-11-11T11:25:26.047Z,570.33
2018-11-11T11:27:53.590Z,926.90
2018-11-11T11:30:21.338Z,692.27
2018-11-11T11:32:48.891Z,487.13
2018-11-11T11:35:19.806Z,502.80
2018-11-11T11:37:47.284Z,711.47
2018-11-11T11:40:14.747Z,681.80
2018-11-11T11:42:42.336Z,811.20
2018-11-11T11:45:11.082Z,999.90
2018-11-11T11:47:38.649Z,999.90
2018-11-11T11:50:07.266Z,967.20
2018-11-11T11:52:34.698Z,982.00
2018-11-11T11:55:02.273Z,994.90
2018-11-11T11:57:29.857Z,999.90
2018-11-11T11:59:57.563Z,784.50
2018-11-11T12:02:25.031Z,999.90
2018-11-11T12:04:52.505Z,869.30
2018-11-11T12:07:20.077Z,999.90
2018-11-11T12:09:47.616Z,999.90
2018-11-11T12:12:15.218Z,999.90
2018-11-11T12:14:42.761Z,999.90
2018-11-11T12:17:10.254Z,999.90
2018-11-11T12:19:37.928Z,894.43
2018-11-11T12:22:05.451Z,560.37
2018-11-11T12:24:32.951Z,529.57
2018-11-11T12:27:00.390Z,517.50
2018-11-11T12:29:27.876Z,547.13
2018-11-11T12:31:55.419Z,624.87
2018-11-11T12:34:23.235Z,548.10
2018-11-11T12:36:50.755Z,520.73
2018-11-11T12:39:18.326Z,478.73
2018-11-11T12:41:45.768Z,398.20
2018-11-11T12:44:13.259Z,364.20
2018-11-11T12:46:40.915Z,418.37
2018-11-11T12:49:08.955Z,568.73
2018-11-11T12:51:36.420Z,471.33
2018-11-11T12:54:04.891Z,530.37
2018-11-11T12:56:32.330Z,565.60
2018-11-11T12:58:59.865Z,582.47
2018-11-11T13:01:27.416Z,743.60
2018-11-11T13:03:54.920Z,944.60
2018-11-11T13:06:22.426Z,735.20
2018-11-11T13:08:50.060Z,564.03
2018-11-11T13:11:17.676Z,537.37
2018-11-11T13:13:45.177Z,548.53
2018-11-11T13:16:12.775Z,503.23
2018-11-11T13:18:40.312Z,531.57
2018-11-11T13:21:07.808Z,541.17
2018-11-11T13:23:35.294Z,561.43
2018-11-11T13:26:02.759Z,601.40
2018-11-11T13:28:30.238Z,669.23
2018-11-11T13:30:57.801Z,503.50
2018-11-11T13:33:25.286Z,497.40
2018-11-11T13:35:52.761Z,535.90
2018-11-11T13:38:22.109Z,630.23
2018-11-11T13:40:49.624Z,639.77
2018-11-11T13:43:18.123Z,517.63
2018-11-11T13:45:45.643Z,494.93
2018-11-11T13:48:13.317Z,515.97
2018-11-11T13:50:40.877Z,495.90
2018-11-11T13:53:08.389Z,544.70
2018-11-11T13:55:36.229Z,513.73
2018-11-11T13:58:03.928Z,507.00
2018-11-11T14:00:31.565Z,508.27
2018-11-11T14:02:59.302Z,535.20
2018-11-11T14:05:26.821Z,426.33
2018-11-11T14:07:54.656Z,267.37
2018-11-11T14:10:22.172Z,280.27
2018-11-11T14:12:49.826Z,338.00
2018-11-11T14:15:18.997Z,419.20
2018-11-11T14:17:47.008Z,469.20
2018-11-11T14:20:15.635Z,494.37
2018-11-11T14:22:44.258Z,584.80
2018-11-11T14:25:14.059Z,668.47
2018-11-11T14:27:41.610Z,687.97
2018-11-11T14:30:17.344Z,706.00
2018-11-11T14:32:45.275Z,721.83
2018-11-11T14:35:13.203Z,718.67
2018-11-11T14:37:40.872Z,751.73
2018-11-11T14:40:10.674Z,729.67
2018-11-11T14:42:38.302Z,709.00
2018-11-11T14:45:06.409Z,719.37
2018-11-11T14:47:34.079Z,723.23
2018-11-11T14:50:01.599Z,707.03
2018-11-11T14:52:29.289Z,727.53
2018-11-11T14:54:56.755Z,745.33
2018-11-11T14:57:24.262Z,748.60
2018-11-11T14:59:51.763Z,782.00
2018-11-11T15:02:19.300Z,754.63
2018-11-11T15:04:46.774Z,732.07
2018-11-11T15:07:14.666Z,749.97
2018-11-11T15:09:42.303Z,751.33
2018-11-11T15:12:09.915Z,773.50
2018-11-11T15:14:37.531Z,753.17
2018-11-11T15:17:06.130Z,758.23
2018-11-11T15:19:33.846Z,776.57
2018-11-11T15:22:01.234Z,820.90
2018-11-11T15:24:28.725Z,875.80
2018-11-11T15:26:56.360Z,859.97
2018-11-11T15:29:23.886Z,827.37
2018-11-11T15:31:52.451Z,834.00
2018-11-11T15:34:20.021Z,869.43
2018-11-11T15:36:47.585Z,852.43
2018-11-11T15:39:15.233Z,857.37
2018-11-11T15:41:42.762Z,839.80
2018-11-11T15:44:10.334Z,843.17
2018-11-11T15:46:38.890Z,827.73
2018-11-11T15:49:06.460Z,859.57
2018-11-11T15:51:37.287Z,865.70
2018-11-11T15:54:05.201Z,820.37
2018-11-11T15:56:32.903Z,760.30
2018-11-11T15:59:00.471Z,761.20
2018-11-11T16:01:28.046Z,781.63
2018-11-11T16:03:55.519Z,777.47
2018-11-11T16:06:23.172Z,737.73
2018-11-11T16:08:50.701Z,748.47
2018-11-11T16:11:18.244Z,726.17
2018-11-11T16:13:45.833Z,699.50
2018-11-11T16:16:14.405Z,719.50
2018-11-11T16:18:41.998Z,677.33
2018-11-11T16:21:09.544Z,722.17
2018-11-11T16:23:37.230Z,756.20
2018-11-11T16:26:04.798Z,748.80
2018-11-11T16:28:33.423Z,706.87
2018-11-11T16:31:00.986Z,704.20
2018-11-11T16:33:28.599Z,742.20
2018-11-11T16:35:56.157Z,782.23
2018-11-11T16:38:29.876Z,756.10
2018-11-11T16:40:58.741Z,788.50
2018-11-11T16:43:26.186Z,783.67
2018-11-11T16:45:59.485Z,790.90
2018-11-11T16:48:30.338Z,821.83
2018-11-11T16:50:57.970Z,864.20
2018-11-11T16:53:25.843Z,871.57
2018-11-11T16:55:56.019Z,849.87
2018-11-11T16:58:25.630Z,886.90
2018-11-11T17:00:53.231Z,851.80
2018-11-11T17:03:20.789Z,920.90
2018-11-11T17:05:49.717Z,913.53
2018-11-11T17:08:17.367Z,929.20
2018-11-11T17:10:45.056Z,958.33
2018-11-11T17:13:14.171Z,957.03
2018-11-11T17:15:41.769Z,966.43
2018-11-11T17:18:11.370Z,992.57
2018-11-11T17:20:46.734Z,988.43
2018-11-11T17:23:15.471Z,999.90
2018-11-11T17:25:43.049Z,999.90
2018-11-11T17:28:11.709Z,999.90
2018-11-11T17:30:39.285Z,999.90
2018-11-11T17:33:08.867Z,999.90
2018-11-11T17:35:38.523Z,999.90
2018-11-11T17:38:06.122Z,999.90
2018-11-11T17:40:33.668Z,999.90
2018-11-11T17:43:08.368Z,999.90
2018-11-11T17:45:35.946Z,965.03
2018-11-11T17:48:03.591Z,955.97
2018-11-11T17:50:32.381Z,960.03
2018-11-11T17:53:02.219Z,923.00
2018-11-11T17:55:31.148Z,887.67
2018-11-11T17:57:58.607Z,949.63
2018-11-11T18:00:27.234Z,932.40
2018-11-11T18:02:56.408Z,976.80
2018-11-11T18:05:26.069Z,963.53
2018-11-11T18:07:53.576Z,974.30
2018-11-11T18:10:22.984Z,968.77
2018-11-11T18:12:51.530Z,996.17
2018-11-11T18:15:21.607Z,977.10
2018-11-11T18:17:50.178Z,976.47
2018-11-11T18:20:19.172Z,999.90
2018-11-11T18:22:47.218Z,999.90
2018-11-11T18:25:14.810Z,999.90
2018-11-11T18:27:42.420Z,999.90
2018-11-11T18:30:11.299Z,984.37
2018-11-11T18:32:39.196Z,999.90
2018-11-11T18:35:08.081Z,971.63
2018-11-11T18:37:35.637Z,988.43
2018-11-11T18:40:03.436Z,966.40
2018-11-11T18:42:31.033Z,956.93
2018-11-11T18:44:58.513Z,967.63
2018-11-11T18:47:26.175Z,965.57
2018-11-11T18:49:53.795Z,912.37
2018-11-11T18:52:21.298Z,960.37
2018-11-11T18:54:48.845Z,963.20
2018-11-11T18:57:16.630Z,973.10
2018-11-11T18:59:44.078Z,955.47
2018-11-11T19:02:11.732Z,928.80
2018-11-11T19:04:39.373Z,958.03
2018-11-11T19:07:06.965Z,929.37
2018-11-11T19:09:36.449Z,970.60
2018-11-11T19:12:04.059Z,940.17
2018-11-11T19:14:32.592Z,973.27
2018-11-11T19:17:00.271Z,957.83
2018-11-11T19:19:27.835Z,936.03
2018-11-11T19:21:55.440Z,924.17
2018-11-11T19:24:23.152Z,954.60
2018-11-11T19:26:51.682Z,948.97
2018-11-11T19:29:20.349Z,942.40
2018-11-11T19:31:48.970Z,954.37
2018-11-11T19:34:18.581Z,947.00
2018-11-11T19:36:48.163Z,970.47
2018-11-11T19:39:16.842Z,959.23
2018-11-11T19:41:44.787Z,928.67
2018-11-11T19:44:12.728Z,935.40
2018-11-11T19:46:40.681Z,930.80
2018-11-11T19:49:10.225Z,879.40
2018-11-11T19:51:38.390Z,897.50
2018-11-11T19:54:05.999Z,883.90
2018-11-11T19:56:33.616Z,872.77
2018-11-11T19:59:01.241Z,897.40
2018-11-11T20:01:28.850Z,932.37
2018-11-11T20:03:59.498Z,989.10
2018-11-11T20:06:27.131Z,945.73
2018-11-11T20:08:54.931Z,954.73
2018-11-11T20:11:22.836Z,978.90
2018-11-11T20:13:51.565Z,961.97
2018-11-11T20:16:20.270Z,999.77
2018-11-11T20:18:48.885Z,986.10
2018-11-11T20:21:18.792Z,974.83
2018-11-11T20:23:46.523Z,970.33
2018-11-11T20:26:16.077Z,953.90
2018-11-11T20:28:44.936Z,938.57
2018-11-11T20:31:12.520Z,926.43
2018-11-11T20:33:47.295Z,967.23
2018-11-11T20:36:14.812Z,958.53
2018-11-11T20:38:43.378Z,967.87
2018-11-11T20:41:11.021Z,983.80
2018-11-11T20:43:40.195Z,974.07
2018-11-11T20:46:09.722Z,978.87
2018-11-11T20:48:44.571Z,990.60
2018-11-11T20:51:13.247Z,996.27
2018-11-11T20:53:41.998Z,999.90
2018-11-11T20:56:09.719Z,985.47
2018-11-11T20:58:38.353Z,999.90
2018-11-11T21:01:05.981Z,999.90
2018-11-11T21:03:34.551Z,987.97
2018-11-11T21:06:03.089Z,957.90
2018-11-11T21:08:35.016Z,955.03
2018-11-11T21:11:03.715Z,987.67
2018-11-11T21:13:31.408Z,984.27
2018-11-11T21:15:59.025Z,985.43
2018-11-11T21:18:26.749Z,999.90
2018-11-11T21:20:55.437Z,989.23
2018-11-11T21:23:25.203Z,988.97
2018-11-11T21:25:52.870Z,997.63
2018-11-11T21:28:20.419Z,968.93
2018-11-11T21:30:48.008Z,989.33
2018-11-11T21:33:17.316Z,998.30
2018-11-11T21:35:49.435Z,995.37
2018-11-11T21:38:17.065Z,974.30
2018-11-11T21:40:47.594Z,994.80
2018-11-11T21:43:15.265Z,999.90
2018-11-11T21:45:45.441Z,963.33
2018-11-11T21:48:16.681Z,892.10
2018-11-11T21:50:44.367Z,896.37
2018-11-11T21:53:17.448Z,891.00
2018-11-11T21:55:45.209Z,911.50
2018-11-11T21:58:13.936Z,921.17
2018-11-11T22:00:42.546Z,929.23
2018-11-11T22:03:10.308Z,902.43
2018-11-11T22:05:39.059Z,929.10
2018-11-11T22:08:08.692Z,909.27
2018-11-11T22:10:37.042Z,930.97
2018-11-11T22:13:05.200Z,999.90
2018-11-11T22:15:32.948Z,894.40
2018-11-11T22:18:00.675Z,993.23
2018-11-11T22:20:29.298Z,927.17
2018-11-11T22:22:58.195Z,939.10
2018-11-11T22:25:27.507Z,945.00
2018-11-11T22:27:56.287Z,945.33
2018-11-11T22:30:23.835Z,945.33
2018-11-11T22:32:53.132Z,977.30
2018-11-11T22:35:21.779Z,951.10
2018-11-11T22:37:50.435Z,971.17
2018-11-11T22:40:18.134Z,951.50
2018-11-11T22:42:45.803Z,999.90
2018-11-11T22:45:14.522Z,992.97
2018-11-11T22:47:43.125Z,995.97
2018-11-11T22:50:11.613Z,987.63
2018-11-11T22:52:40.358Z,996.27
2018-11-11T22:55:10.641Z,989.10
2018-11-11T22:57:38.478Z,955.43
2018-11-11T23:00:17.256Z,941.17
2018-11-11T23:02:45.053Z,996.20
2018-11-11T23:05:12.870Z,978.93
2018-11-11T23:07:40.583Z,999.80
2018-11-11T23:10:11.952Z,996.73
2018-11-11T23:12:43.863Z,999.90
2018-11-11T23:15:13.398Z,965.37
2018-11-11T23:17:41.074Z,968.43
2018-11-11T23:20:09.334Z,943.77
2018-11-11T23:22:38.095Z,993.77
2018-11-11T23:25:06.112Z,998.13
2018-11-11T23:27:33.825Z,953.63
2018-11-11T23:30:02.154Z,980.07
2018-11-11T23:32:30.720Z,956.90
2018-11-11T23:34:59.482Z,966.97
2018-11-11T23:37:27.064Z,974.60
2018-11-11T23:39:55.825Z,991.20
2018-11-11T23:42:23.422Z,999.90
2018-11-11T23:44:51.046Z,968.60
2018-11-11T23:47:18.857Z,999.90
2018-11-11T23:49:47.702Z,980.30
2018-11-11T23:52:17.704Z,976.40
2018-11-11T23:54:47.282Z,984.30
2018-11-11T23:57:14.933Z,949.87
2018-11-11T23:59:43.568Z,895.17
